Time;durP1;ratioP1;P1;durP2;ratioP2;P2;SDS_P1;SDS_P2;PMS_P1;PMS_P2;Temp;Humidity;BMP_temperature;BMP_pressure;BME280_temperature;BME280_humidity;BME280_pressure;Samples;Min_cycle;Max_cycle;Signal;HPM_P1;HPM_P2
2022/12/08 00:00:42;;;;;;;12.33;7.87;;;;;;;3.69;100.00;98609.34;5032536;28;20202;-79
2022/12/08 00:03:13;;;;;;;12.60;8.17;;;;;;;3.58;100.00;98620.28;5028947;28;20198;-79
2022/12/08 00:11:20;;;;;;;13.43;8.70;;;;;;;3.65;100.00;98610.38;5092968;28;20261;-79
2022/12/08 00:13:48;;;;;;;11.97;8.77;;;;;;;3.61;100.00;98607.06;5092945;28;20195;-79
2022/12/08 00:16:19;;;;;;;15.17;8.37;;;;;;;3.61;100.00;98598.34;5088479;28;20233;-80
2022/12/08 00:18:49;;;;;;;13.70;8.67;;;;;;;3.68;100.00;98599.78;5090003;28;20195;-79
2022/12/08 00:21:17;;;;;;;11.63;8.17;;;;;;;3.63;100.00;98597.34;5087469;28;20245;-79
2022/12/08 00:23:47;;;;;;;14.17;8.87;;;;;;;3.59;100.00;98582.72;5091278;28;20191;-79
2022/12/08 00:26:18;;;;;;;12.33;7.20;;;;;;;3.72;100.00;98593.47;5091335;28;20222;-79
2022/12/08 00:28:47;;;;;;;14.83;8.47;;;;;;;3.68;100.00;98582.31;5054475;28;20188;-79
2022/12/08 00:31:16;;;;;;;12.13;7.90;;;;;;;3.76;100.00;98581.09;5057770;28;20265;-80
2022/12/08 00:33:44;;;;;;;11.00;6.97;;;;;;;3.92;100.00;98584.72;5095144;27;20206;-80
2022/12/08 00:36:15;;;;;;;12.67;7.90;;;;;;;3.88;100.00;98578.78;5030529;28;20202;-79
2022/12/08 00:38:51;;;;;;;13.47;7.10;;;;;;;3.80;100.00;98570.41;5028037;28;20193;-79
2022/12/08 00:42:10;;;;;;;13.57;7.43;;;;;;;3.76;100.00;98571.47;4984535;28;20197;-80
2022/12/08 00:44:13;;;;;;;10.93;7.27;;;;;;;3.78;100.00;98574.88;5037869;28;20204;-80
2022/12/08 00:46:43;;;;;;;10.70;6.90;;;;;;;3.84;100.00;98569.34;5024219;28;20228;-79
2022/12/08 00:49:13;;;;;;;17.00;7.40;;;;;;;3.76;100.00;98563.59;5027978;28;20232;-79
2022/12/08 00:51:41;;;;;;;10.07;6.70;;;;;;;3.80;100.00;98565.19;5024324;28;20218;-79
2022/12/08 00:54:12;;;;;;;11.10;6.73;;;;;;;3.68;100.00;98563.97;5049786;28;20203;-79
2022/12/08 00:56:42;;;;;;;13.07;7.27;;;;;;;3.56;100.00;98556.66;5091916;28;20222;-79
2022/12/08 00:59:10;;;;;;;12.83;7.87;;;;;;;3.70;100.00;98558.66;5089552;28;20196;-80
2022/12/08 01:01:40;;;;;;;11.57;7.03;;;;;;;3.71;100.00;98549.88;5084891;28;20203;-79
2022/12/08 01:04:14;;;;;;;10.57;7.83;;;;;;;3.62;100.00;98558.16;5088191;28;20227;-79
2022/12/08 01:06:43;;;;;;;15.67;8.60;;;;;;;3.66;100.00;98557.94;5087103;28;20191;-79
2022/12/08 01:09:18;;;;;;;13.10;7.30;;;;;;;3.58;100.00;98548.75;5090235;28;20227;-79
2022/12/08 01:11:48;;;;;;;10.20;7.30;;;;;;;3.56;100.00;98561.03;5092276;28;20211;-79
2022/12/08 01:14:16;;;;;;;13.30;8.00;;;;;;;3.55;100.00;98556.72;5089951;28;20260;-79
2022/12/08 01:16:47;;;;;;;15.73;8.00;;;;;;;3.51;100.00;98561.28;5090062;28;20191;-79
2022/12/08 01:19:17;;;;;;;14.87;8.77;;;;;;;3.49;100.00;98551.78;5089906;28;20188;-79
2022/12/08 01:21:51;;;;;;;13.50;8.20;;;;;;;3.53;100.00;98554.19;5084619;28;20245;-79
2022/12/08 01:24:24;;;;;;;14.07;8.20;;;;;;;3.56;100.00;98556.66;5048457;28;20668;-79
2022/12/08 01:26:55;;;;;;;13.97;8.43;;;;;;;3.55;100.00;98556.72;5045113;28;20197;-79
2022/12/08 01:29:36;;;;;;;15.77;8.00;;;;;;;3.60;100.00;98552.16;5045449;28;20387;-80
2022/12/08 01:32:05;;;;;;;12.30;8.13;;;;;;;3.68;100.00;98545.66;5022228;28;20272;-79
2022/12/08 01:34:33;;;;;;;11.73;7.97;;;;;;;3.55;100.00;98554.97;5029162;28;20201;-79
2022/12/08 01:37:03;;;;;;;12.27;7.83;;;;;;;3.57;100.00;98550.53;5025014;28;20648;-79
2022/12/08 01:39:33;;;;;;;11.97;8.07;;;;;;;3.53;100.00;98553.34;4994066;28;20267;-79
2022/12/08 01:42:01;;;;;;;12.00;7.80;;;;;;;3.59;100.00;98540.81;5021931;28;20260;-80
2022/12/08 01:45:01;;;;;;;14.17;8.13;;;;;;;3.55;100.00;98554.13;5032887;28;20201;-79
2022/12/08 01:47:36;;;;;;;13.80;8.00;;;;;;;3.55;100.00;98551.50;5030180;28;20194;-79
2022/12/08 01:50:12;;;;;;;14.20;8.20;;;;;;;3.58;100.00;98565.31;5093984;28;20202;-80
2022/12/08 01:52:47;;;;;;;14.63;8.30;;;;;;;3.55;100.00;98557.56;5094337;28;20700;-80
2022/12/08 01:55:20;;;;;;;14.00;8.90;;;;;;;3.51;100.00;98556.03;5033047;28;20563;-79
2022/12/08 01:57:53;;;;;;;10.77;7.27;;;;;;;3.60;100.00;98553.00;5026064;28;20220;-80
2022/12/08 02:00:23;;;;;;;12.20;8.47;;;;;;;3.50;100.00;98550.88;5029333;28;20202;-80
2022/12/08 02:02:57;;;;;;;11.13;7.43;;;;;;;3.48;100.00;98545.72;5026879;28;20193;-79
2022/12/08 02:05:29;;;;;;;11.07;7.67;;;;;;;3.51;100.00;98553.41;4965481;28;20204;-80
2022/12/08 02:08:00;;;;;;;10.20;7.30;;;;;;;3.50;100.00;98549.09;5027437;28;20230;-80
2022/12/08 02:10:33;;;;;;;13.40;7.90;;;;;;;3.50;100.00;98541.25;5028568;28;20210;-79
2022/12/08 02:13:04;;;;;;;14.03;7.73;;;;;;;3.62;100.00;98545.06;5028777;28;20205;-79
2022/12/08 02:15:43;;;;;;;12.23;8.33;;;;;;;3.51;100.00;98545.56;4954593;29;20189;-80
2022/12/08 02:18:27;;;;;;;13.73;7.80;;;;;;;3.50;100.00;98545.63;4860242;29;20297;-80
2022/12/08 02:21:04;;;;;;;13.90;8.47;;;;;;;3.50;100.00;98540.41;4926901;29;20695;-80
2022/12/08 02:23:41;;;;;;;10.57;7.13;;;;;;;3.51;100.00;98529.84;4933764;29;20215;-80
2022/12/08 02:26:42;;;;;;;11.07;6.83;;;;;;;3.54;100.00;98528.84;4935584;29;20205;-79
2022/12/08 02:29:43;;;;;;;12.40;8.20;;;;;;;3.47;100.00;98533.50;4937797;28;20280;-79
2022/12/08 02:32:41;;;;;;;14.00;7.17;;;;;;;3.52;100.00;98528.94;4931935;29;20229;-79
2022/12/08 02:35:15;;;;;;;13.23;7.03;;;;;;;3.57;100.00;98526.97;4916901;29;20205;-79
2022/12/08 02:37:55;;;;;;;12.20;7.57;;;;;;;3.57;100.00;98529.59;4938234;28;20346;-79
2022/12/08 02:40:29;;;;;;;13.40;7.43;;;;;;;3.50;100.00;98530.78;4976210;28;20198;-79
2022/12/08 02:43:02;;;;;;;8.93;6.87;;;;;;;3.58;100.00;98528.66;5053210;28;20268;-79
2022/12/08 02:45:36;;;;;;;11.73;7.80;;;;;;;3.54;100.00;98514.00;4946945;28;20199;-79
2022/12/08 02:48:06;;;;;;;10.67;7.27;;;;;;;3.59;100.00;98511.19;4992936;28;20284;-80
2022/12/08 02:50:36;;;;;;;9.43;7.03;;;;;;;3.51;100.00;98513.28;4988611;28;20363;-79
2022/12/08 02:53:05;;;;;;;12.40;7.47;;;;;;;3.43;100.00;98511.88;4986133;28;20211;-79
2022/12/08 02:55:47;;;;;;;10.70;6.63;;;;;;;3.55;100.00;98501.75;4989785;28;20251;-79
2022/12/08 02:58:43;;;;;;;13.17;6.90;;;;;;;3.55;100.00;98514.84;4989951;28;20234;-79
2022/12/08 03:01:39;;;;;;;13.10;7.47;;;;;;;3.45;100.00;98507.41;4956812;28;20273;-79
2022/12/08 03:04:19;;;;;;;10.50;6.30;;;;;;;3.52;100.00;98502.75;5041697;28;20204;-81
2022/12/08 03:06:55;;;;;;;10.70;7.30;;;;;;;3.42;100.00;98501.47;5067336;28;20237;-79
2022/12/08 03:09:33;;;;;;;9.10;6.53;;;;;;;3.54;100.00;98500.91;5069215;28;20242;-79
2022/12/08 03:12:12;;;;;;;9.83;7.40;;;;;;;3.42;100.00;98486.63;5069477;28;20298;-79
2022/12/08 03:14:47;;;;;;;10.53;6.77;;;;;;;3.44;100.00;98487.38;5069882;28;20226;-79
2022/12/08 03:17:19;;;;;;;12.60;6.97;;;;;;;3.41;100.00;98487.53;5069636;28;20199;-79
2022/12/08 03:19:50;;;;;;;12.10;6.37;;;;;;;3.57;100.00;98486.81;5009612;28;20210;-79
2022/12/08 03:22:24;;;;;;;12.60;8.03;;;;;;;3.38;100.00;98485.06;5021008;28;20220;-79
2022/12/08 03:24:53;;;;;;;11.40;8.10;;;;;;;3.38;100.00;98473.75;5052143;28;20196;-79
2022/12/08 03:27:24;;;;;;;11.97;7.47;;;;;;;3.36;100.00;98475.56;5051590;28;20197;-79
2022/12/08 03:29:54;;;;;;;11.87;7.20;;;;;;;3.33;100.00;98479.19;5028546;28;20742;-79
2022/12/08 03:32:29;;;;;;;13.80;7.67;;;;;;;3.32;100.00;98474.88;5026797;28;20271;-79
2022/12/08 03:35:01;;;;;;;11.83;7.30;;;;;;;3.38;100.00;98472.00;4979191;28;20676;-80
2022/12/08 03:37:32;;;;;;;13.07;8.03;;;;;;;3.39;100.00;98463.22;5030939;28;20204;-79
2022/12/08 03:40:00;;;;;;;11.53;7.50;;;;;;;3.40;100.00;98457.06;5025596;28;20617;-79
2022/12/08 03:42:29;;;;;;;10.03;6.90;;;;;;;3.37;100.00;98462.41;5028720;28;20198;-79
2022/12/08 03:44:58;;;;;;;13.80;7.73;;;;;;;3.33;100.00;98466.09;5069171;28;20195;-79
2022/12/08 03:47:27;;;;;;;12.33;7.10;;;;;;;3.43;100.00;98459.53;5082593;28;20237;-80
2022/12/08 03:49:55;;;;;;;13.67;7.33;;;;;;;3.33;100.00;98455.63;5087751;28;20199;-79
2022/12/08 03:52:25;;;;;;;11.00;6.67;;;;;;;3.38;100.00;98456.28;5082093;28;20261;-80
2022/12/08 03:54:55;;;;;;;12.47;7.00;;;;;;;3.34;100.00;98449.47;5084200;28;20200;-79
2022/12/08 03:57:24;;;;;;;12.63;7.00;;;;;;;3.35;100.00;98453.78;5087309;28;20276;-79
2022/12/08 03:59:52;;;;;;;14.03;7.60;;;;;;;3.41;100.00;98445.66;5090876;28;20183;-79
2022/12/08 04:02:21;;;;;;;11.67;7.10;;;;;;;3.38;100.00;98445.81;5094075;28;20195;-80
2022/12/08 04:04:49;;;;;;;10.23;6.40;;;;;;;3.42;100.00;98443.91;5097990;28;20227;-80
2022/12/08 04:07:20;;;;;;;12.17;6.83;;;;;;;3.35;100.00;98440.69;5088801;28;20231;-79
2022/12/08 04:09:49;;;;;;;11.50;7.53;;;;;;;3.35;100.00;98442.47;5090848;28;20196;-80
2022/12/08 04:12:19;;;;;;;12.93;7.00;;;;;;;3.34;100.00;98433.78;5090630;28;20218;-79
2022/12/08 04:14:48;;;;;;;11.77;6.83;;;;;;;3.30;100.00;98434.84;5092884;28;20238;-79
2022/12/08 04:17:17;;;;;;;12.57;6.93;;;;;;;3.36;100.00;98429.31;5083441;28;20215;-79
2022/12/08 04:19:46;;;;;;;10.73;6.40;;;;;;;3.33;100.00;98428.63;5055539;28;20187;-79
2022/12/08 04:22:15;;;;;;;14.53;7.17;;;;;;;3.42;100.00;98436.03;5089983;28;20206;-79
2022/12/08 04:24:45;;;;;;;12.80;6.97;;;;;;;3.43;100.00;98432.50;5094745;28;20279;-80
2022/12/08 04:27:14;;;;;;;10.47;6.53;;;;;;;3.53;100.00;98427.69;5058467;28;20204;-79
2022/12/08 04:29:44;;;;;;;12.47;6.87;;;;;;;3.60;100.00;98429.94;5091306;28;20198;-79
2022/12/08 04:32:15;;;;;;;12.33;6.33;;;;;;;3.57;100.00;98422.25;5093327;28;20219;-81
2022/12/08 04:34:44;;;;;;;12.53;7.33;;;;;;;3.61;100.00;98420.31;5093071;28;20207;-79
2022/12/08 04:37:13;;;;;;;12.80;7.37;;;;;;;3.69;100.00;98405.94;5009780;28;20190;-80
2022/12/08 04:39:44;;;;;;;9.70;6.80;;;;;;;3.63;100.00;98408.84;5008062;28;20202;-79
2022/12/08 04:42:14;;;;;;;13.77;7.30;;;;;;;3.73;100.00;98406.63;5006168;28;20198;-79
2022/12/08 04:44:44;;;;;;;16.93;8.90;;;;;;;3.75;100.00;98407.41;5006720;28;20246;-79
2022/12/08 04:47:13;;;;;;;15.17;9.87;;;;;;;3.77;100.00;98402.94;5007637;28;20260;-79
2022/12/08 04:49:42;;;;;;;13.77;9.40;;;;;;;3.58;100.00;98405.59;5004532;28;20217;-79
2022/12/08 04:52:10;;;;;;;18.30;10.47;;;;;;;3.63;100.00;98406.22;4957893;28;20320;-79
2022/12/08 04:54:41;;;;;;;15.23;10.20;;;;;;;3.65;100.00;98408.75;5010966;28;20202;-79
2022/12/08 04:57:10;;;;;;;19.00;11.17;;;;;;;3.41;100.00;98401.16;5006370;28;20202;-79
2022/12/08 04:59:39;;;;;;;19.23;10.73;;;;;;;3.60;100.00;98406.38;5004860;28;20202;-79
2022/12/08 05:02:09;;;;;;;22.60;13.73;;;;;;;3.57;100.00;98398.69;5004818;28;20194;-79
2022/12/08 05:04:39;;;;;;;23.63;14.03;;;;;;;3.44;100.00;98402.78;5003011;28;20215;-79
2022/12/08 05:07:08;;;;;;;18.87;11.73;;;;;;;3.54;100.00;98408.44;5003181;28;20230;-79
2022/12/08 05:09:37;;;;;;;18.70;11.20;;;;;;;3.54;100.00;98405.81;5010942;28;20626;-79
2022/12/08 05:12:06;;;;;;;16.83;11.30;;;;;;;3.38;100.00;98406.56;4955236;28;20222;-79
2022/12/08 05:14:36;;;;;;;19.83;11.13;;;;;;;3.45;100.00;98404.47;5033060;28;20207;-79
2022/12/08 05:17:05;;;;;;;21.80;12.93;;;;;;;3.48;100.00;98401.75;5094994;28;20680;-80
2022/12/08 05:19:38;;;;;;;17.97;11.00;;;;;;;3.37;100.00;98411.84;5096125;28;20204;-79
2022/12/08 05:22:07;;;;;;;18.43;10.87;;;;;;;3.38;100.00;98403.94;5095666;28;20187;-79
2022/12/08 05:24:35;;;;;;;15.53;11.07;;;;;;;3.41;100.00;98398.56;5096619;28;20199;-79
2022/12/08 05:27:11;;;;;;;17.67;10.40;;;;;;;3.42;100.00;98389.78;5097084;28;20192;-79
2022/12/08 05:29:41;;;;;;;15.10;10.37;;;;;;;3.53;100.00;98394.50;5062526;28;20281;-79
2022/12/08 05:32:09;;;;;;;17.60;10.80;;;;;;;3.55;100.00;98400.50;5096699;28;20187;-79
2022/12/08 05:34:39;;;;;;;19.43;11.30;;;;;;;3.34;100.00;98404.13;5096385;28;20200;-79
2022/12/08 05:37:10;;;;;;;15.10;9.40;;;;;;;3.30;100.00;98405.22;5091739;28;20191;-79
2022/12/08 05:39:43;;;;;;;17.27;8.43;;;;;;;3.15;100.00;98397.16;5093161;28;20697;-79
2022/12/08 05:42:14;;;;;;;12.37;8.17;;;;;;;3.36;100.00;98395.28;5094783;28;20229;-79
2022/12/08 05:44:54;;;;;;;16.03;9.40;;;;;;;3.41;100.00;98389.84;5100080;27;20199;-79
2022/12/08 05:47:24;;;;;;;12.27;8.43;;;;;;;3.50;100.00;98386.81;5062450;28;20253;-79
2022/12/08 05:49:56;;;;;;;13.33;8.00;;;;;;;3.44;100.00;98379.22;5051081;28;20200;-80
2022/12/08 05:52:26;;;;;;;13.37;8.00;;;;;;;3.42;100.00;98375.84;5052787;28;20217;-79
2022/12/08 05:54:55;;;;;;;13.57;7.93;;;;;;;3.40;100.00;98380.31;5047281;28;20193;-80
2022/12/08 05:57:24;;;;;;;11.73;7.67;;;;;;;3.51;100.00;98372.78;5050445;28;20185;-80
2022/12/08 05:59:55;;;;;;;14.13;8.20;;;;;;;3.53;100.00;98370.09;5047775;28;20331;-79
2022/12/08 06:02:24;;;;;;;13.83;8.20;;;;;;;3.56;100.00;98372.53;5049032;28;20220;-79
2022/12/08 06:04:54;;;;;;;12.00;8.13;;;;;;;3.59;100.00;98375.03;5045002;28;20227;-79
2022/12/08 06:07:22;;;;;;;11.57;7.70;;;;;;;3.42;100.00;98370.59;5052116;28;20219;-79
2022/12/08 06:09:51;;;;;;;11.57;7.87;;;;;;;3.43;100.00;98381.00;5092698;28;20237;-79
2022/12/08 06:12:21;;;;;;;12.57;8.63;;;;;;;3.45;100.00;98373.91;5095972;28;20184;-80
2022/12/08 06:14:49;;;;;;;13.73;8.53;;;;;;;3.46;100.00;98380.00;5090107;28;20241;-79
2022/12/08 06:17:18;;;;;;;13.73;8.50;;;;;;;3.33;100.00;98368.44;5090207;28;20208;-79
2022/12/08 06:19:46;;;;;;;12.90;8.00;;;;;;;3.50;100.00;98373.72;5095917;28;20642;-79
2022/12/08 06:22:16;;;;;;;14.80;8.57;;;;;;;3.48;100.00;98361.63;5088595;28;20191;-79
2022/12/08 06:24:45;;;;;;;12.97;8.00;;;;;;;3.46;100.00;98366.91;5093512;28;20245;-79
2022/12/08 06:27:15;;;;;;;16.77;8.37;;;;;;;3.19;100.00;98361.25;5091457;28;20188;-79
2022/12/08 06:29:49;;;;;;;12.80;8.50;;;;;;;3.36;100.00;98357.81;5091343;28;20607;-79
2022/12/08 06:32:18;;;;;;;16.43;9.97;;;;;;;3.39;100.00;98358.53;5092348;28;20211;-79
2022/12/08 06:34:54;;;;;;;15.17;9.03;;;;;;;3.36;100.00;98363.03;5028030;28;20277;-79
2022/12/08 06:37:24;;;;;;;14.53;9.47;;;;;;;3.52;100.00;98360.53;5028525;28;20676;-80
2022/12/08 06:39:52;;;;;;;16.03;9.20;;;;;;;3.48;100.00;98365.09;5023327;28;20248;-79
2022/12/08 06:45:07;;;;;;;15.57;9.67;;;;;;;3.50;100.00;98362.41;5032976;28;20327;-79
2022/12/08 06:47:37;;;;;;;16.17;9.13;;;;;;;3.38;100.00;98362.06;5025940;28;20202;-79
2022/12/08 06:50:08;;;;;;;17.20;10.67;;;;;;;3.43;100.00;98365.28;4970878;28;20208;-79
2022/12/08 06:52:39;;;;;;;15.67;9.80;;;;;;;3.43;100.00;98374.91;4993016;28;20193;-79
2022/12/08 06:55:23;;;;;;;17.17;10.27;;;;;;;3.56;100.00;98369.94;5004695;28;20228;-80
2022/12/08 06:58:12;;;;;;;17.57;10.50;;;;;;;3.40;100.00;98367.22;5032986;28;20292;-79
2022/12/08 07:00:42;;;;;;;18.97;11.57;;;;;;;3.42;100.00;98362.75;5028100;28;20228;-79
2022/12/08 07:03:12;;;;;;;19.97;11.03;;;;;;;3.40;100.00;98364.59;5025711;28;20198;-79
2022/12/08 07:05:41;;;;;;;16.00;10.60;;;;;;;3.35;100.00;98363.97;5032727;28;20197;-79
2022/12/08 07:08:11;;;;;;;17.63;11.17;;;;;;;3.46;100.00;98372.16;5030875;28;20237;-79
2022/12/08 07:10:40;;;;;;;24.60;11.83;;;;;;;3.47;100.00;98362.53;5030120;28;20680;-79
2022/12/08 07:13:08;;;;;;;17.83;11.23;;;;;;;3.47;100.00;98363.38;5028854;28;20225;-79
2022/12/08 07:15:37;;;;;;;19.93;10.80;;;;;;;3.48;100.00;98364.25;5040787;28;20201;-79
2022/12/08 07:18:08;;;;;;;19.37;12.07;;;;;;;3.39;100.00;98374.22;4973606;28;20192;-79
2022/12/08 07:20:36;;;;;;;18.40;11.47;;;;;;;3.41;100.00;98371.53;4960270;28;20200;-79
2022/12/08 07:23:05;;;;;;;19.37;11.87;;;;;;;3.44;100.00;98374.00;4966263;28;20277;-79
2022/12/08 07:25:36;;;;;;;18.43;12.40;;;;;;;3.30;100.00;98371.19;4968464;28;20203;-79
2022/12/08 07:28:12;;;;;;;24.17;12.37;;;;;;;3.39;100.00;98381.22;4969487;28;20746;-79
2022/12/08 07:30:40;;;;;;;20.67;12.40;;;;;;;3.40;100.00;98372.47;4973377;28;20195;-79
2022/12/08 07:33:09;;;;;;;19.63;12.50;;;;;;;3.47;100.00;98368.59;4981894;28;20304;-79
2022/12/08 07:35:38;;;;;;;18.33;11.30;;;;;;;3.42;100.00;98371.47;5041006;28;20245;-79
2022/12/08 07:38:12;;;;;;;19.73;12.00;;;;;;;3.36;100.00;98378.75;5008848;28;20225;-79
2022/12/08 07:40:45;;;;;;;19.50;11.57;;;;;;;3.41;100.00;98368.91;5011640;28;20191;-79
2022/12/08 07:43:14;;;;;;;21.17;11.93;;;;;;;3.54;100.00;98371.78;5012302;28;20194;-79
2022/12/08 07:45:43;;;;;;;20.47;12.40;;;;;;;3.52;100.00;98366.63;5012110;28;20202;-79
2022/12/08 07:48:13;;;;;;;19.43;11.63;;;;;;;3.51;100.00;98372.78;5013080;28;20258;-79
2022/12/08 07:50:43;;;;;;;20.03;12.07;;;;;;;3.40;100.00;98369.84;5010268;28;20202;-79
2022/12/08 07:53:12;;;;;;;18.93;12.07;;;;;;;3.57;100.00;98369.88;4978799;28;20281;-79
2022/12/08 07:55:43;;;;;;;19.33;11.33;;;;;;;3.61;100.00;98370.56;5032544;28;20265;-80
2022/12/08 07:58:12;;;;;;;18.70;11.83;;;;;;;3.35;100.00;98370.03;5091755;28;20192;-79
2022/12/08 08:00:41;;;;;;;18.37;11.27;;;;;;;3.35;100.00;98372.66;5091930;28;20199;-80
2022/12/08 08:03:10;;;;;;;17.97;11.67;;;;;;;3.31;100.00;98370.28;5095518;27;20192;-79
2022/12/08 08:05:38;;;;;;;19.93;12.33;;;;;;;3.32;100.00;98374.59;5090365;28;20229;-80
2022/12/08 08:08:09;;;;;;;21.47;12.30;;;;;;;3.32;100.00;98371.97;5092438;28;20235;-79
2022/12/08 08:10:38;;;;;;;18.87;12.20;;;;;;;3.54;100.00;98377.03;5093507;28;20187;-79
2022/12/08 08:13:11;;;;;;;20.63;12.57;;;;;;;3.48;100.00;98382.56;5090853;28;20195;-80
2022/12/08 08:15:40;;;;;;;18.23;11.93;;;;;;;3.76;100.00;98368.97;5093526;28;20211;-80
2022/12/08 08:18:08;;;;;;;24.10;13.37;;;;;;;3.80;100.00;98376.59;5095088;28;20220;-79
2022/12/08 08:20:37;;;;;;;30.60;17.50;;;;;;;3.69;100.00;98365.81;5091099;28;20252;-79
2022/12/08 08:23:05;;;;;;;22.90;15.17;;;;;;;3.60;100.00;98374.97;5092559;28;20188;-79
2022/12/08 08:25:34;;;;;;;19.27;11.67;;;;;;;3.42;100.00;98368.84;5091457;28;20257;-79
2022/12/08 08:28:02;;;;;;;21.57;12.40;;;;;;;3.33;100.00;98373.66;5074917;28;20199;-80
2022/12/08 08:30:33;;;;;;;17.53;11.43;;;;;;;3.39;100.00;98374.22;5088774;28;20203;-78
2022/12/08 08:33:01;;;;;;;18.97;11.53;;;;;;;3.46;100.00;98377.38;5095093;27;20198;-79
2022/12/08 08:35:30;;;;;;;21.07;11.57;;;;;;;3.57;100.00;98379.47;5090590;28;20239;-79
2022/12/08 08:37:58;;;;;;;19.07;11.67;;;;;;;3.38;100.00;98384.78;5091080;28;20196;-79
2022/12/08 08:40:28;;;;;;;20.43;11.63;;;;;;;3.37;100.00;98383.06;5093054;28;20255;-79
2022/12/08 08:42:57;;;;;;;16.60;10.83;;;;;;;3.50;100.00;98376.34;5087830;28;20203;-79
2022/12/08 08:45:25;;;;;;;19.53;11.40;;;;;;;3.48;100.00;98372.94;5091573;28;20674;-79
2022/12/08 08:47:55;;;;;;;18.90;11.03;;;;;;;3.53;100.00;98372.72;5087673;28;20245;-79
2022/12/08 08:50:24;;;;;;;18.87;10.63;;;;;;;3.52;100.00;98382.34;5030391;28;20320;-79
2022/12/08 08:52:54;;;;;;;17.00;9.77;;;;;;;3.53;100.00;98373.56;5029082;28;20198;-79
2022/12/08 08:55:23;;;;;;;16.80;10.37;;;;;;;3.54;100.00;98375.25;5029617;28;20213;-79
2022/12/08 08:57:51;;;;;;;16.77;10.80;;;;;;;3.57;100.00;98384.72;5022697;28;20202;-79
2022/12/08 09:00:20;;;;;;;19.00;10.67;;;;;;;3.65;100.00;98370.34;5026579;28;20252;-79
2022/12/08 09:02:49;;;;;;;17.73;10.43;;;;;;;3.71;100.00;98372.66;4952186;28;20223;-79
2022/12/08 09:05:20;;;;;;;12.97;8.63;;;;;;;3.61;100.00;98370.56;4950992;28;20200;-79
2022/12/08 09:07:49;;;;;;;14.23;9.00;;;;;;;3.65;100.00;98372.09;4964770;28;20220;-79
2022/12/08 09:10:20;;;;;;;12.37;8.23;;;;;;;3.67;100.00;98373.75;5028338;28;20653;-79
2022/12/08 09:12:50;;;;;;;14.70;8.23;;;;;;;3.78;100.00;98369.75;5024963;28;20205;-79
2022/12/08 09:15:19;;;;;;;11.43;7.33;;;;;;;3.65;100.00;98361.63;5026216;28;20256;-79
2022/12/08 09:17:54;;;;;;;12.80;8.20;;;;;;;3.66;100.00;98365.94;5031321;28;20209;-79
2022/12/08 09:20:27;;;;;;;13.13;7.77;;;;;;;3.72;100.00;98363.03;5031747;28;20205;-79
2022/12/08 09:22:55;;;;;;;13.90;7.77;;;;;;;3.73;100.00;98354.25;5032660;28;20197;-79
2022/12/08 09:25:24;;;;;;;11.03;7.60;;;;;;;3.72;100.00;98358.66;5025749;28;20209;-79
2022/12/08 09:27:53;;;;;;;9.67;6.93;;;;;;;3.71;100.00;98363.97;5074115;28;20191;-79
2022/12/08 09:30:23;;;;;;;9.67;6.97;;;;;;;3.89;100.00;98363.06;5058005;28;20188;-79
2022/12/08 09:32:51;;;;;;;12.10;6.90;;;;;;;3.79;100.00;98356.59;5088872;28;20203;-78
2022/12/08 09:35:20;;;;;;;10.33;6.63;;;;;;;3.83;100.00;98358.13;5092142;28;20217;-78
2022/12/08 09:37:52;;;;;;;12.07;6.67;;;;;;;3.80;100.00;98350.41;5091406;28;20184;-79
2022/12/08 09:40:24;;;;;;;10.23;6.73;;;;;;;3.83;100.00;98352.03;5087396;28;20205;-79
2022/12/08 09:42:58;;;;;;;8.77;6.10;;;;;;;3.80;100.00;98354.81;5092771;28;20207;-78
2022/12/08 09:45:33;;;;;;;9.63;6.50;;;;;;;3.88;100.00;98352.66;5091866;28;20199;-79
2022/12/08 09:48:11;;;;;;;9.30;5.90;;;;;;;3.92;100.00;98355.03;5086906;28;20223;-79
2022/12/08 09:50:45;;;;;;;8.13;6.23;;;;;;;3.92;100.00;98343.72;5088729;28;20196;-79
2022/12/08 09:53:19;;;;;;;8.20;5.70;;;;;;;3.94;100.00;98347.09;5085164;28;20204;-79
2022/12/08 09:55:51;;;;;;;7.57;5.50;;;;;;;3.90;100.00;98341.19;5091637;28;20223;-79
2022/12/08 09:58:32;;;;;;;10.57;5.40;;;;;;;3.99;100.00;98342.47;5029992;28;20260;-79
2022/12/08 10:01:00;;;;;;;8.00;5.97;;;;;;;3.93;100.00;98327.06;5027830;28;20194;-78
2022/12/08 10:03:31;;;;;;;10.47;5.90;;;;;;;4.01;100.00;98330.16;5028518;28;20198;-79
2022/12/08 10:06:07;;;;;;;8.80;5.93;;;;;;;3.92;100.00;98325.38;5030671;28;20194;-78
2022/12/08 10:08:49;;;;;;;10.80;7.70;;;;;;;3.92;100.00;98317.53;5042168;28;20210;-79
2022/12/08 10:11:26;;;;;;;15.27;10.23;;;;;;;3.98;100.00;98320.69;5032862;28;20190;-79
2022/12/08 10:14:03;;;;;;;8.93;6.67;;;;;;;4.03;100.00;98310.81;5030913;28;20243;-79
2022/12/08 10:16:36;;;;;;;10.60;7.00;;;;;;;3.98;100.00;98314.59;5027454;28;20209;-79
2022/12/08 10:19:14;;;;;;;15.90;10.00;;;;;;;3.94;100.00;98307.81;5001034;28;20197;-79
2022/12/08 10:21:42;;;;;;;22.43;12.60;;;;;;;3.98;100.00;98314.59;5027731;28;20203;-79
2022/12/08 10:24:21;;;;;;;37.30;24.83;;;;;;;4.09;100.00;98304.41;5012519;28;20241;-79
2022/12/08 10:26:50;;;;;;;19.23;12.40;;;;;;;4.02;100.00;98305.66;5008383;28;20276;-79
2022/12/08 10:29:19;;;;;;;9.83;6.70;;;;;;;4.09;100.00;98303.56;5011154;28;20202;-79
2022/12/08 10:31:47;;;;;;;17.53;12.37;;;;;;;3.99;100.00;98296.19;5011066;28;20317;-78
2022/12/08 10:34:19;;;;;;;20.93;15.33;;;;;;;4.03;100.00;98295.09;5013342;28;20253;-79
2022/12/08 10:36:51;;;;;;;12.87;8.40;;;;;;;4.05;100.00;98291.53;5012766;28;20294;-79
2022/12/08 10:39:36;;;;;;;9.70;7.50;;;;;;;4.08;100.00;98286.16;5016149;28;20268;-79
2022/12/08 10:42:20;;;;;;;11.63;6.63;;;;;;;4.06;100.00;98293.25;5041023;28;20199;-79
2022/12/08 10:45:02;;;;;;;7.97;5.67;;;;;;;4.11;100.00;98283.38;5095426;28;20198;-79
2022/12/08 10:47:36;;;;;;;10.90;8.13;;;;;;;4.14;100.00;98276.19;5091187;28;20650;-79
2022/12/08 10:50:19;;;;;;;12.67;9.10;;;;;;;4.13;100.00;98282.34;5095519;28;20246;-79
2022/12/08 10:52:56;;;;;;;10.83;8.97;;;;;;;4.16;100.00;98274.34;5092695;28;20222;-79
2022/12/08 10:55:30;;;;;;;18.23;11.57;;;;;;;4.20;100.00;98273.25;5100079;27;20241;-79
2022/12/08 10:57:59;;;;;;;13.60;8.73;;;;;;;4.15;100.00;98272.66;5094924;28;20184;-79
2022/12/08 11:00:28;;;;;;;18.83;11.03;;;;;;;4.25;100.00;98267.78;5047500;28;20262;-79
2022/12/08 11:03:02;;;;;;;43.47;27.60;;;;;;;4.22;100.00;98260.91;5050344;28;20301;-79
2022/12/08 11:05:34;;;;;;;11.67;6.87;;;;;;;4.19;100.00;98262.84;5051303;28;20205;-79
2022/12/08 11:08:05;;;;;;;11.10;6.43;;;;;;;4.30;100.00;98271.00;5050942;28;20274;-79
2022/12/08 11:10:37;;;;;;;11.73;7.37;;;;;;;4.28;100.00;98265.84;5052700;28;20351;-79
2022/12/08 11:13:13;;;;;;;14.87;10.50;;;;;;;4.32;100.00;98261.25;5047685;28;20197;-79
2022/12/08 11:15:44;;;;;;;26.87;19.50;;;;;;;4.29;100.00;98253.56;5050282;28;20219;-79
2022/12/08 11:18:25;;;;;;;10.93;6.87;;;;;;;4.24;100.00;98243.31;5066747;28;20203;-79
2022/12/08 11:21:00;;;;;;;7.33;5.20;;;;;;;4.30;100.00;98243.00;5095968;28;20188;-79
2022/12/08 11:23:29;;;;;;;7.93;5.00;;;;;;;4.31;100.00;98241.22;5089167;28;20199;-79
2022/12/08 11:26:06;;;;;;;8.27;6.20;;;;;;;4.27;100.00;98250.19;5094559;28;20194;-79
2022/12/08 11:28:35;;;;;;;7.97;5.60;;;;;;;4.26;100.00;98244.13;5093652;28;20187;-79
2022/12/08 11:31:16;;;;;;;6.30;4.87;;;;;;;4.34;100.00;98241.06;5093589;28;20196;-78
2022/12/08 11:33:46;;;;;;;7.73;5.53;;;;;;;4.27;100.00;98235.31;5094403;28;20195;-79
2022/12/08 11:36:16;;;;;;;11.50;6.10;;;;;;;4.45;100.00;98243.13;5091629;28;20265;-78
2022/12/08 11:38:47;;;;;;;10.57;6.07;;;;;;;4.43;100.00;98240.56;5086459;28;20207;-79
2022/12/08 11:41:21;;;;;;;10.17;5.23;;;;;;;4.35;100.00;98239.31;5058714;28;20233;-79
2022/12/08 11:44:00;;;;;;;8.03;5.27;;;;;;;4.29;100.00;98245.72;5091956;28;20183;-79
2022/12/08 11:46:34;;;;;;;8.10;5.03;;;;;;;4.28;100.00;98241.41;5094029;28;20187;-79
2022/12/08 11:49:05;;;;;;;7.77;5.10;;;;;;;4.26;100.00;98233.63;5056685;28;20246;-79
2022/12/08 11:51:37;;;;;;;12.97;9.33;;;;;;;4.28;100.00;98230.91;5089700;28;20198;-79
2022/12/08 11:54:18;;;;;;;6.33;4.47;;;;;;;4.24;100.00;98226.75;5086203;28;20257;-79